createdAt,value
2019-03-04T00:01:53.093Z,91.50
2019-03-04T00:04:21.361Z,91.30
2019-03-04T00:06:49.624Z,91.40
2019-03-04T00:09:17.872Z,91.40
2019-03-04T00:11:46.109Z,91.30
2019-03-04T00:14:14.362Z,91.30
2019-03-04T00:16:42.625Z,91.10
2019-03-04T00:19:10.901Z,91.00
2019-03-04T00:21:39.152Z,91.10
2019-03-04T00:24:07.389Z,91.00
2019-03-04T00:26:35.643Z,91.00
2019-03-04T00:29:03.885Z,91.10
2019-03-04T00:31:32.156Z,91.00
2019-03-04T00:34:00.416Z,91.00
2019-03-04T00:36:28.664Z,91.10
2019-03-04T00:38:56.924Z,91.10
2019-03-04T00:41:25.188Z,91.00
2019-03-04T00:43:53.446Z,90.90
2019-03-04T00:46:21.694Z,91.00
2019-03-04T00:48:49.965Z,90.80
2019-03-04T00:51:18.210Z,90.70
2019-03-04T00:53:46.473Z,90.50
2019-03-04T00:56:14.731Z,90.40
2019-03-04T00:58:43.001Z,90.50
2019-03-04T01:01:11.243Z,90.50
2019-03-04T01:03:39.517Z,90.70
2019-03-04T01:06:07.772Z,90.40
2019-03-04T01:08:36.015Z,90.10
2019-03-04T01:11:04.292Z,90.30
2019-03-04T01:13:32.548Z,90.60
2019-03-04T01:16:00.810Z,90.80
2019-03-04T01:18:29.067Z,90.40
2019-03-04T01:20:57.342Z,90.30
2019-03-04T01:23:25.602Z,90.30
2019-03-04T01:25:53.846Z,90.30
2019-03-04T01:28:22.166Z,90.40
2019-03-04T01:30:50.418Z,90.30
2019-03-04T01:33:18.693Z,90.30
2019-03-04T01:35:47.018Z,90.40
2019-03-04T01:38:15.285Z,90.60
2019-03-04T01:40:43.541Z,91.00
2019-03-04T01:43:11.786Z,91.30
2019-03-04T01:45:40.049Z,91.30
2019-03-04T01:48:08.294Z,91.20
2019-03-04T01:50:36.561Z,91.50
2019-03-04T01:53:04.808Z,91.40
2019-03-04T01:55:33.072Z,91.50
2019-03-04T01:58:01.336Z,91.10
2019-03-04T02:00:29.582Z,91.00
2019-03-04T02:02:57.830Z,91.00
2019-03-04T02:05:26.354Z,91.00
2019-03-04T02:07:54.601Z,91.00
2019-03-04T02:10:22.932Z,90.70
2019-03-04T02:12:51.178Z,90.60
2019-03-04T02:15:21.096Z,90.90
2019-03-04T02:17:49.346Z,90.60
2019-03-04T02:20:18.235Z,90.50
2019-03-04T02:22:46.662Z,90.40
2019-03-04T02:25:19.169Z,90.80
2019-03-04T02:28:11.166Z,90.80
2019-03-04T02:30:39.414Z,90.80
2019-03-04T02:33:07.740Z,91.10
2019-03-04T02:35:35.999Z,90.70
2019-03-04T02:38:04.265Z,90.60
2019-03-04T02:40:32.585Z,90.80
2019-03-04T02:43:00.832Z,90.70
2019-03-04T02:45:29.111Z,90.90
2019-03-04T02:47:57.373Z,90.80
2019-03-04T02:50:25.638Z,90.10
2019-03-04T02:52:53.886Z,90.10
2019-03-04T02:55:22.138Z,90.00
2019-03-04T02:57:50.396Z,90.10
2019-03-04T03:00:19.298Z,89.80
2019-03-04T03:02:47.615Z,89.60
2019-03-04T03:05:15.889Z,89.40
2019-03-04T03:07:44.205Z,89.70
2019-03-04T03:10:33.485Z,89.80
2019-03-04T03:13:01.738Z,89.20
2019-03-04T03:15:29.992Z,88.80
2019-03-04T03:17:58.234Z,88.70
2019-03-04T03:20:26.497Z,88.90
2019-03-04T03:22:54.773Z,88.20
2019-03-04T03:25:23.114Z,88.20
2019-03-04T03:27:51.454Z,88.10
2019-03-04T03:30:22.998Z,88.10
2019-03-04T03:32:51.315Z,86.50
2019-03-04T03:35:19.562Z,87.00
2019-03-04T03:37:47.802Z,87.10
2019-03-04T03:40:19.993Z,86.60
2019-03-04T03:42:48.315Z,87.00
2019-03-04T03:45:16.689Z,87.20
2019-03-04T03:47:45.033Z,86.90
2019-03-04T03:50:15.111Z,86.50
2019-03-04T03:52:43.365Z,86.60
2019-03-04T03:55:12.842Z,86.70
2019-03-04T03:57:41.109Z,86.00
2019-03-04T04:00:17.046Z,85.60
2019-03-04T04:02:45.311Z,86.30
2019-03-04T04:05:13.632Z,86.30
2019-03-04T04:07:41.891Z,85.20
2019-03-04T04:10:13.469Z,85.90
2019-03-04T04:12:41.717Z,85.70
2019-03-04T04:15:11.590Z,86.00
2019-03-04T04:17:39.852Z,86.30
2019-03-04T04:20:09.413Z,85.40
2019-03-04T04:22:37.694Z,85.90
2019-03-04T04:25:07.337Z,85.50
2019-03-04T04:27:35.618Z,85.60
2019-03-04T04:30:07.037Z,85.00
2019-03-04T04:32:35.289Z,84.80
2019-03-04T04:35:03.725Z,84.90
2019-03-04T04:37:31.973Z,85.00
2019-03-04T04:40:00.335Z,85.00
2019-03-04T04:42:28.661Z,84.50
2019-03-04T04:44:56.925Z,84.60
2019-03-04T04:47:25.245Z,85.00
2019-03-04T04:49:53.501Z,85.20
2019-03-04T04:52:23.295Z,83.90
2019-03-04T04:54:51.765Z,84.10
2019-03-04T04:57:20.019Z,84.50
2019-03-04T04:59:48.294Z,83.60
2019-03-04T05:02:16.602Z,83.60
2019-03-04T05:04:44.841Z,83.40
2019-03-04T05:07:13.106Z,84.40
2019-03-04T05:09:41.353Z,83.90
2019-03-04T05:12:09.608Z,83.70
2019-03-04T05:14:37.869Z,83.00
2019-03-04T05:17:06.141Z,84.50
2019-03-04T05:19:34.369Z,84.10
2019-03-04T05:22:02.637Z,83.20
2019-03-04T05:24:30.882Z,84.10
2019-03-04T05:26:59.385Z,83.50
2019-03-04T05:29:27.656Z,83.30
2019-03-04T05:31:55.890Z,83.10
2019-03-04T05:34:24.157Z,83.10
2019-03-04T05:36:52.420Z,82.50
2019-03-04T05:39:20.730Z,82.40
2019-03-04T05:41:48.978Z,82.80
2019-03-04T05:44:17.240Z,82.60
2019-03-04T05:46:45.477Z,83.20
2019-03-04T05:49:13.720Z,81.90
2019-03-04T05:51:41.986Z,81.90
2019-03-04T05:54:10.245Z,82.40
2019-03-04T05:56:38.490Z,82.10
2019-03-04T05:59:06.765Z,82.10
2019-03-04T06:01:35.027Z,81.70
2019-03-04T06:04:05.512Z,81.30
2019-03-04T06:06:41.478Z,81.10
2019-03-04T06:09:11.485Z,81.60
2019-03-04T06:11:39.726Z,80.90
2019-03-04T06:14:09.015Z,80.80
2019-03-04T06:16:46.835Z,80.70
2019-03-04T06:19:07.233Z,80.70
2019-03-04T06:21:35.521Z,80.20
2019-03-04T06:24:03.802Z,80.80
2019-03-04T06:26:32.034Z,80.20
2019-03-04T06:29:00.286Z,80.00
2019-03-04T06:31:28.544Z,80.40
2019-03-04T06:33:56.792Z,80.10
2019-03-04T06:36:25.064Z,80.20
2019-03-04T06:38:53.298Z,79.80
2019-03-04T06:41:21.590Z,79.70
2019-03-04T06:43:49.881Z,79.90
2019-03-04T06:46:18.149Z,79.10
2019-03-04T06:48:46.401Z,79.50
2019-03-04T06:51:20.590Z,78.80
2019-03-04T06:54:07.206Z,79.60
2019-03-04T06:56:50.857Z,78.40
2019-03-04T06:59:40.028Z,79.10
2019-03-04T07:02:11.537Z,78.60
2019-03-04T07:05:06.951Z,78.60
2019-03-04T07:07:35.189Z,78.70
2019-03-04T07:10:05.107Z,79.00
2019-03-04T07:12:33.417Z,78.40
2019-03-04T07:15:01.678Z,78.40
2019-03-04T07:17:29.918Z,78.10
2019-03-04T07:20:10.240Z,77.50
2019-03-04T07:22:38.466Z,77.40
2019-03-04T07:25:08.762Z,77.10
2019-03-04T07:27:37.003Z,77.00
2019-03-04T07:30:11.083Z,77.00
2019-03-04T07:32:39.330Z,76.30
2019-03-04T07:35:08.905Z,77.10
2019-03-04T07:37:37.155Z,76.10
2019-03-04T07:40:08.675Z,75.70
2019-03-04T07:42:36.937Z,75.60
2019-03-04T07:45:07.103Z,76.30
2019-03-04T07:47:35.345Z,75.50
2019-03-04T07:50:03.598Z,75.20
2019-03-04T07:52:31.854Z,76.10
2019-03-04T07:55:00.160Z,74.60
2019-03-04T07:57:28.697Z,75.50
2019-03-04T07:59:56.942Z,75.80
2019-03-04T08:02:25.205Z,75.00
2019-03-04T08:04:53.474Z,75.20
2019-03-04T08:07:36.322Z,74.60
2019-03-04T08:10:16.797Z,74.90
2019-03-04T08:13:09.057Z,74.60
2019-03-04T08:15:38.633Z,74.30
2019-03-04T08:18:06.897Z,74.70
2019-03-04T08:20:35.149Z,74.60
2019-03-04T08:23:03.394Z,74.10
2019-03-04T08:25:31.646Z,74.40
2019-03-04T08:27:59.892Z,74.40
2019-03-04T08:30:28.151Z,74.00
2019-03-04T08:32:56.390Z,74.20
2019-03-04T08:35:24.651Z,74.30
2019-03-04T08:37:52.889Z,74.30
2019-03-04T08:40:21.203Z,74.10
2019-03-04T08:42:49.465Z,74.20
2019-03-04T08:45:19.367Z,73.40
2019-03-04T08:47:47.684Z,73.40
2019-03-04T08:50:17.386Z,73.50
2019-03-04T08:52:45.622Z,73.30
2019-03-04T08:55:15.622Z,72.60
2019-03-04T08:57:44.656Z,71.90
2019-03-04T09:00:21.402Z,74.50
2019-03-04T09:02:49.661Z,81.60
2019-03-04T09:05:17.887Z,89.00
2019-03-04T09:07:46.167Z,90.60
2019-03-04T09:10:28.845Z,91.60
2019-03-04T09:12:57.103Z,91.70
2019-03-04T09:15:25.353Z,92.50
2019-03-04T09:17:53.580Z,92.50
2019-03-04T09:20:22.842Z,92.00
2019-03-04T09:22:51.080Z,92.10
2019-03-04T09:26:03.028Z,92.00
2019-03-04T09:28:31.272Z,92.50
2019-03-04T09:30:59.534Z,92.00
2019-03-04T09:33:27.754Z,93.10
2019-03-04T09:35:56.033Z,92.20
2019-03-04T09:38:24.337Z,91.80
2019-03-04T09:40:52.574Z,92.00
2019-03-04T09:43:20.828Z,91.70
2019-03-04T09:45:49.088Z,92.00
2019-03-04T09:48:17.349Z,91.80
2019-03-04T09:50:45.575Z,91.40
2019-03-04T09:53:13.822Z,91.60
2019-03-04T09:55:42.077Z,91.60
2019-03-04T09:58:10.337Z,91.60
2019-03-04T10:00:46.904Z,91.40
2019-03-04T10:03:45.359Z,90.70
2019-03-04T10:06:25.770Z,90.80
2019-03-04T10:09:16.718Z,89.80
2019-03-04T10:11:51.061Z,89.80
2019-03-04T10:14:55.951Z,90.60
2019-03-04T10:17:46.619Z,88.70
2019-03-04T10:20:40.978Z,88.80
2019-03-04T10:23:52.558Z,89.00
2019-03-04T10:27:06.913Z,90.10
2019-03-04T10:30:10.979Z,87.20
2019-03-04T10:33:06.231Z,86.90
2019-03-04T10:35:43.711Z,86.40
2019-03-04T10:38:43.014Z,84.00
2019-03-04T10:41:34.355Z,85.30
2019-03-04T10:44:21.213Z,85.10
2019-03-04T10:46:51.458Z,84.60
2019-03-04T10:49:19.693Z,84.70
2019-03-04T10:51:47.944Z,83.80
2019-03-04T10:54:16.208Z,83.30
2019-03-04T10:56:44.437Z,83.20
2019-03-04T10:59:12.701Z,83.00
2019-03-04T11:01:40.921Z,82.30
2019-03-04T11:04:09.169Z,82.50
2019-03-04T11:06:37.436Z,83.10
2019-03-04T11:09:14.231Z,81.80
2019-03-04T11:11:43.026Z,81.20
2019-03-04T11:14:11.280Z,80.30
2019-03-04T11:16:39.532Z,81.10
2019-03-04T11:19:07.800Z,81.10
2019-03-04T11:21:36.054Z,80.00
2019-03-04T11:24:04.776Z,79.40
2019-03-04T11:26:33.025Z,79.60
2019-03-04T11:29:01.270Z,79.80
2019-03-04T11:31:29.512Z,79.30
2019-03-04T11:33:57.761Z,79.20
2019-03-04T11:36:26.017Z,78.40
2019-03-04T11:38:57.550Z,78.30
2019-03-04T11:41:25.808Z,78.90
2019-03-04T11:43:54.043Z,80.80
2019-03-04T11:46:23.463Z,84.50
2019-03-04T11:48:51.773Z,87.10
2019-03-04T11:53:37.779Z,87.00
2019-03-04T11:56:06.037Z,90.30
2019-03-04T11:58:34.270Z,91.80
2019-03-04T12:01:04.147Z,91.30
2019-03-04T12:03:32.403Z,92.20
2019-03-04T12:06:00.634Z,92.10
2019-03-04T12:08:28.894Z,91.60
2019-03-04T12:10:57.143Z,91.50
2019-03-04T12:13:25.400Z,90.90
2019-03-04T12:15:53.648Z,90.70
2019-03-04T12:18:21.906Z,89.70
2019-03-04T12:20:50.134Z,90.10
2019-03-04T12:23:18.393Z,88.60
2019-03-04T12:25:46.630Z,89.40
2019-03-04T12:28:15.149Z,89.70
2019-03-04T12:30:43.681Z,89.20
2019-03-04T12:33:11.930Z,87.20
2019-03-04T12:35:40.185Z,87.90
2019-03-04T12:38:08.414Z,87.20
2019-03-04T12:40:36.667Z,87.80
2019-03-04T12:43:04.899Z,86.20
2019-03-04T12:45:34.658Z,86.00
2019-03-04T12:48:03.088Z,85.10
2019-03-04T12:50:33.937Z,84.90
2019-03-04T12:53:02.282Z,85.40
2019-03-04T12:55:30.525Z,84.00
2019-03-04T12:57:58.773Z,83.00
2019-03-04T13:00:30.770Z,84.70
2019-03-04T13:02:59.470Z,83.70
2019-03-04T13:05:27.728Z,81.60
2019-03-04T13:07:55.980Z,80.90
2019-03-04T13:10:24.545Z,81.00
2019-03-04T13:12:52.874Z,80.10
2019-03-04T13:15:35.043Z,79.10
2019-03-04T13:18:06.090Z,77.60
2019-03-04T13:20:34.412Z,78.10
2019-03-04T13:23:02.657Z,78.90
2019-03-04T13:25:30.913Z,77.00
2019-03-04T13:28:07.821Z,78.20
2019-03-04T13:30:34.122Z,76.60
2019-03-04T13:33:02.429Z,76.50
2019-03-04T13:35:58.583Z,77.40
2019-03-04T13:38:26.830Z,78.10
2019-03-04T13:40:55.157Z,76.60
2019-03-04T13:43:23.400Z,75.50
2019-03-04T13:45:55.462Z,74.90
2019-03-04T13:48:23.969Z,77.20
2019-03-04T13:50:52.238Z,81.20
2019-03-04T13:53:20.486Z,82.00
2019-03-04T13:55:48.902Z,80.80
2019-03-04T13:58:17.126Z,78.60
2019-03-04T14:00:45.391Z,78.30
2019-03-04T14:03:14.445Z,78.30
2019-03-04T14:05:42.669Z,77.60
2019-03-04T14:08:10.946Z,77.70
2019-03-04T14:10:44.632Z,78.80
2019-03-04T14:13:12.881Z,80.20
2019-03-04T14:15:43.254Z,80.20
2019-03-04T14:18:11.626Z,79.30
2019-03-04T14:20:39.846Z,79.00
2019-03-04T14:23:08.093Z,78.70
2019-03-04T14:25:36.346Z,78.30
2019-03-04T14:28:04.601Z,77.20
2019-03-04T14:30:32.861Z,75.90
2019-03-04T14:33:01.117Z,75.90
2019-03-04T14:35:29.385Z,76.40
2019-03-04T14:37:57.773Z,76.10
2019-03-04T14:40:26.023Z,76.10
2019-03-04T14:42:55.144Z,77.20
2019-03-04T14:45:25.674Z,77.20
2019-03-04T14:47:54.093Z,77.30
2019-03-04T14:50:22.407Z,78.10
2019-03-04T14:52:50.698Z,79.10
2019-03-04T14:55:26.454Z,80.00
2019-03-04T14:57:54.694Z,79.40
2019-03-04T15:00:35.793Z,79.90
2019-03-04T15:03:04.105Z,80.50
2019-03-04T15:05:32.339Z,79.90
2019-03-04T15:08:00.569Z,79.60
2019-03-04T15:10:28.824Z,79.00
2019-03-04T15:12:57.049Z,80.40
2019-03-04T15:15:34.959Z,79.80
2019-03-04T15:18:03.196Z,80.90
2019-03-04T15:20:33.452Z,81.20
2019-03-04T15:23:01.988Z,82.20
2019-03-04T15:25:37.431Z,82.30
2019-03-04T15:28:08.932Z,82.50
2019-03-04T15:30:37.183Z,82.90
2019-03-04T15:33:05.506Z,82.70
2019-03-04T15:35:33.846Z,83.90
2019-03-04T15:38:02.190Z,85.10
2019-03-04T15:40:30.504Z,85.60
2019-03-04T15:42:58.809Z,88.30
2019-03-04T15:45:27.205Z,87.90
2019-03-04T15:47:55.442Z,88.50
2019-03-04T15:50:23.877Z,90.30
2019-03-04T15:52:52.115Z,90.70
2019-03-04T15:55:20.363Z,90.70
2019-03-04T15:57:51.031Z,90.60
2019-03-04T16:00:19.064Z,91.10
2019-03-04T16:02:48.827Z,91.20
2019-03-04T16:05:17.377Z,91.30
2019-03-04T16:07:45.694Z,91.20
2019-03-04T16:10:25.833Z,91.50
2019-03-04T16:12:54.150Z,91.80
2019-03-04T16:15:22.405Z,92.00
2019-03-04T16:17:50.710Z,92.20
2019-03-04T16:20:20.372Z,92.40
2019-03-04T16:22:49.059Z,92.50
2019-03-04T16:25:17.386Z,92.80
2019-03-04T16:27:45.692Z,92.70
2019-03-04T16:30:23.521Z,92.90
2019-03-04T16:32:51.777Z,93.00
2019-03-04T16:35:20.151Z,93.30
2019-03-04T16:37:48.876Z,93.20
2019-03-04T16:40:23.573Z,93.20
2019-03-04T16:42:51.906Z,94.10
2019-03-04T16:45:23.598Z,93.60
2019-03-04T16:47:51.862Z,94.00
2019-03-04T16:50:44.097Z,93.80
2019-03-04T16:53:24.561Z,93.30
2019-03-04T16:55:52.829Z,93.80
2019-03-04T16:58:21.098Z,93.60
2019-03-04T17:00:49.794Z,93.50
2019-03-04T17:03:18.125Z,93.40
2019-03-04T17:05:46.357Z,93.50
2019-03-04T17:08:14.700Z,93.80
2019-03-04T17:10:42.948Z,93.50
2019-03-04T17:13:11.406Z,93.80
2019-03-04T17:15:39.685Z,93.50
2019-03-04T17:18:08.001Z,93.70
2019-03-04T17:20:36.335Z,93.80
2019-03-04T17:23:04.811Z,93.80
2019-03-04T17:25:33.049Z,94.00
2019-03-04T17:28:01.302Z,93.80
2019-03-04T17:30:29.689Z,94.00
2019-03-04T17:32:58.123Z,93.70
2019-03-04T17:35:26.657Z,93.90
2019-03-04T17:37:54.941Z,93.80
2019-03-04T17:40:27.265Z,94.00
2019-03-04T17:42:55.519Z,93.80
2019-03-04T17:45:25.766Z,93.90
2019-03-04T17:47:54.217Z,93.90
2019-03-04T17:50:28.419Z,94.00
2019-03-04T17:52:56.990Z,93.90
2019-03-04T17:55:25.629Z,93.90
2019-03-04T17:57:53.873Z,94.00
2019-03-04T18:00:22.114Z,93.60
2019-03-04T18:02:50.383Z,93.30
2019-03-04T18:05:18.617Z,93.80
2019-03-04T18:07:46.882Z,93.30
2019-03-04T18:10:16.250Z,93.40
2019-03-04T18:12:44.950Z,93.10
2019-03-04T18:15:21.836Z,93.30
2019-03-04T18:17:50.158Z,93.50
2019-03-04T18:20:18.462Z,93.40
2019-03-04T18:22:46.775Z,93.90
2019-03-04T18:25:24.362Z,93.70
2019-03-04T18:27:55.860Z,93.80
2019-03-04T18:30:51.481Z,93.80
2019-03-04T18:33:25.979Z,94.10
2019-03-04T18:36:12.643Z,93.70
2019-03-04T18:38:44.276Z,93.30
2019-03-04T18:41:32.324Z,93.30
2019-03-04T18:44:22.016Z,93.10
2019-03-04T18:47:02.457Z,92.80
2019-03-04T18:49:30.729Z,92.70
2019-03-04T18:51:59.055Z,92.50
2019-03-04T18:54:27.377Z,92.70
2019-03-04T18:56:55.834Z,92.80
2019-03-04T18:59:24.228Z,92.70
2019-03-04T19:01:52.557Z,92.40
2019-03-04T19:04:20.804Z,92.90
2019-03-04T19:06:49.034Z,92.50
2019-03-04T19:09:17.315Z,92.70
2019-03-04T19:11:45.553Z,92.70
2019-03-04T19:14:13.808Z,92.90
2019-03-04T19:16:42.033Z,93.20
2019-03-04T19:19:10.283Z,92.50
2019-03-04T19:21:38.537Z,92.40
2019-03-04T19:24:06.773Z,92.30
2019-03-04T19:26:35.010Z,92.30
2019-03-04T19:29:03.249Z,92.00
2019-03-04T19:31:31.508Z,91.70
2019-03-04T19:33:59.761Z,91.70
2019-03-04T19:36:28.009Z,91.30
2019-03-04T19:38:56.272Z,91.10
2019-03-04T19:41:24.525Z,90.10
2019-03-04T19:43:52.776Z,90.20
2019-03-04T19:46:21.021Z,88.50
2019-03-04T19:48:49.258Z,88.70
2019-03-04T19:51:17.503Z,88.50
2019-03-04T19:53:45.741Z,86.10
2019-03-04T19:56:13.993Z,85.90
2019-03-04T19:58:42.272Z,87.00
2019-03-04T20:01:11.092Z,83.20
2019-03-04T20:03:39.344Z,84.60
2019-03-04T20:06:07.610Z,84.00
2019-03-04T20:08:35.850Z,83.30
2019-03-04T20:11:04.098Z,81.90
2019-03-04T20:13:32.365Z,81.90
2019-03-04T20:16:00.604Z,81.70
2019-03-04T20:18:28.837Z,82.00
2019-03-04T20:20:57.103Z,81.30
2019-03-04T20:23:25.353Z,81.30
2019-03-04T20:25:54.145Z,81.30
2019-03-04T20:28:22.454Z,81.30
2019-03-04T20:30:50.685Z,80.80
2019-03-04T20:33:18.938Z,81.00
2019-03-04T20:35:48.432Z,82.10
2019-03-04T20:38:26.226Z,80.90
2019-03-04T20:40:54.469Z,81.20
2019-03-04T20:43:22.733Z,81.70
2019-03-04T20:45:51.052Z,81.50
2019-03-04T20:48:19.300Z,81.80
2019-03-04T20:50:47.541Z,82.20
2019-03-04T20:53:15.778Z,82.40
2019-03-04T20:55:44.052Z,82.40
2019-03-04T20:58:12.301Z,82.50
2019-03-04T21:00:40.720Z,82.60
2019-03-04T21:03:09.048Z,82.50
2019-03-04T21:05:37.295Z,82.40
2019-03-04T21:08:06.090Z,81.90
2019-03-04T21:10:34.409Z,82.80
2019-03-04T21:13:07.046Z,81.80
2019-03-04T21:15:35.310Z,82.00
2019-03-04T21:18:05.908Z,82.30
2019-03-04T21:20:33.596Z,82.10
2019-03-04T21:23:01.853Z,81.70
2019-03-04T21:26:10.342Z,81.90
2019-03-04T21:29:08.035Z,81.50
2019-03-04T21:31:55.874Z,81.90
2019-03-04T21:34:46.842Z,81.90
2019-03-04T21:37:31.253Z,82.10
2019-03-04T21:40:08.656Z,82.30
2019-03-04T21:43:01.454Z,82.10
2019-03-04T21:45:54.025Z,82.10
2019-03-04T21:48:25.560Z,82.10
2019-03-04T21:51:11.989Z,82.30
2019-03-04T21:54:03.989Z,82.50
2019-03-04T21:56:53.285Z,82.20
2019-03-04T21:59:21.530Z,82.40
2019-03-04T22:02:11.044Z,82.50
2019-03-04T22:04:39.450Z,82.50
2019-03-04T22:07:07.700Z,82.80
2019-03-04T22:09:35.924Z,82.80
2019-03-04T22:12:04.348Z,82.70
2019-03-04T22:14:32.617Z,82.80
2019-03-04T22:17:00.922Z,82.80
2019-03-04T22:19:29.173Z,82.90
2019-03-04T22:21:57.408Z,82.80
2019-03-04T22:24:25.659Z,83.00
2019-03-04T22:26:53.882Z,82.90
2019-03-04T22:29:22.152Z,83.00
2019-03-04T22:31:50.387Z,83.20
2019-03-04T22:34:18.619Z,83.90
2019-03-04T22:36:46.879Z,83.30
2019-03-04T22:39:15.136Z,83.20
2019-03-04T22:41:43.459Z,83.30
2019-03-04T22:44:11.776Z,83.30
2019-03-04T22:46:40.021Z,83.50
2019-03-04T22:49:08.282Z,83.50
2019-03-04T22:51:36.702Z,83.50
2019-03-04T22:54:05.033Z,83.90
2019-03-04T22:56:33.288Z,83.70
2019-03-04T22:59:01.614Z,84.10
2019-03-04T23:01:32.953Z,84.40
2019-03-04T23:04:05.669Z,84.30
2019-03-04T23:06:55.028Z,84.70
2019-03-04T23:09:26.600Z,84.80
2019-03-04T23:12:21.758Z,85.20
2019-03-04T23:14:50.005Z,85.50
2019-03-04T23:17:18.291Z,85.60
2019-03-04T23:19:46.545Z,85.50
2019-03-04T23:22:14.788Z,85.70
2019-03-04T23:24:43.031Z,85.60
2019-03-04T23:27:11.262Z,85.60
2019-03-04T23:29:39.501Z,85.40
2019-03-04T23:32:07.757Z,85.40
2019-03-04T23:34:36.023Z,85.70
2019-03-04T23:37:04.254Z,85.70
2019-03-04T23:39:32.504Z,86.10
2019-03-04T23:42:00.761Z,86.10
2019-03-04T23:44:28.989Z,85.90
2019-03-04T23:46:57.256Z,85.90
2019-03-04T23:49:25.500Z,85.90
2019-03-04T23:51:53.742Z,86.20
2019-03-04T23:54:21.996Z,86.40
2019-03-04T23:56:50.249Z,86.60
2019-03-04T23:59:18.485Z,86.50
